createdAt,value
2023-04-15T00:06:22.008Z,32.5
2023-04-15T00:22:04.065Z,34.9
2023-04-15T00:37:46.648Z,34.2
2023-04-15T00:53:29.608Z,38.09
2023-04-15T01:09:11.745Z,38.5
2023-04-15T01:24:54.701Z,39.8
2023-04-15T01:40:37.569Z,39.59
2023-04-15T01:56:20.304Z,41
2023-04-15T02:12:03.356Z,38.4
2023-04-15T02:27:46.201Z,39.9
2023-04-15T02:43:29.221Z,39.5
2023-04-15T02:59:12.197Z,41.6
2023-04-15T03:14:55.198Z,39.8
2023-04-15T03:30:37.636Z,39.4
2023-04-15T03:46:20.099Z,39.4
2023-04-15T04:02:02.496Z,38.2
2023-04-15T04:17:45.547Z,37.5
2023-04-15T04:33:27.908Z,34.59
2023-04-15T04:49:10.797Z,38.7
2023-04-15T05:04:53.299Z,34.59
2023-04-15T05:20:36.277Z,34.4
2023-04-15T05:36:18.749Z,30
2023-04-15T06:23:27.189Z,14.2
2023-04-15T06:54:51.797Z,10.7
2023-04-15T07:10:34.571Z,10.4
2023-04-15T07:26:24.403Z,10.6
2023-04-15T07:42:07.312Z,12
2023-04-15T07:57:42.586Z,12.4
2023-04-15T07:58:29.904Z,13.6
2023-04-15T08:14:12.874Z,12.8
2023-04-15T08:29:55.780Z,12.6
2023-04-15T08:45:38.292Z,13.4
2023-04-15T09:01:20.844Z,12.4
2023-04-15T09:17:03.293Z,12.6
2023-04-15T09:32:46.205Z,12.5
2023-04-15T09:48:29.057Z,13.5
2023-04-15T10:04:11.696Z,13
2023-04-15T10:19:54.445Z,12.3
2023-04-15T10:35:36.848Z,11.8
2023-04-15T10:51:19.221Z,12.6
2023-04-15T11:07:02.076Z,12.8
2023-04-15T11:22:44.342Z,12.7
2023-04-15T11:38:26.761Z,13.1
2023-04-15T11:54:09.768Z,12.2
2023-04-15T12:09:52.821Z,12.3
2023-04-15T12:25:35.179Z,10.4
2023-04-15T12:41:17.635Z,9.3
2023-04-15T12:57:00.354Z,7.8
2023-04-15T13:12:42.533Z,9.5
2023-04-15T13:28:24.938Z,8
2023-04-15T13:44:07.830Z,9.5
2023-04-15T13:59:50.859Z,7.8
2023-04-15T14:15:33.524Z,7.9
2023-04-15T14:31:16.309Z,8.6
2023-04-15T14:46:59.312Z,8.1
2023-04-15T15:02:42.185Z,8.1
2023-04-15T15:18:25.001Z,7.6
2023-04-15T15:34:08.036Z,9.1
2023-04-15T15:49:50.524Z,8.1
2023-04-15T16:05:32.778Z,7.6
2023-04-15T16:21:14.924Z,6.7
2023-04-15T16:36:57.370Z,6.9
2023-04-15T16:52:39.659Z,7.8
2023-04-15T17:08:22.408Z,7.8
2023-04-15T17:24:04.638Z,6.8
2023-04-15T17:39:46.994Z,8.2
2023-04-15T17:55:29.535Z,9
2023-04-15T18:11:11.835Z,10.3
2023-04-15T18:26:54.234Z,11.2
2023-04-15T18:42:36.813Z,10.8
2023-04-15T18:58:19.751Z,12.7
2023-04-15T19:14:02.170Z,14.6
2023-04-15T19:29:45.001Z,15.2
2023-04-15T19:45:27.737Z,14.2
2023-04-15T20:01:09.968Z,11.9
2023-04-15T20:16:52.706Z,13.3
2023-04-15T20:32:34.971Z,17.5
2023-04-15T20:48:17.183Z,19.79
2023-04-15T21:03:59.449Z,19.7
2023-04-15T21:19:41.712Z,20.7
2023-04-15T21:35:24.461Z,20.4
2023-04-15T21:51:06.676Z,20.7
2023-04-15T22:06:49.363Z,21.3
2023-04-15T22:22:31.744Z,20.6
2023-04-15T22:38:14.674Z,22.2
2023-04-15T22:53:56.998Z,23.3
2023-04-15T23:09:39.500Z,21.3
2023-04-15T23:25:22.375Z,22.3
2023-04-15T23:41:04.576Z,22
2023-04-15T23:56:47.489Z,25.7
